KFAM/FAM METAR and TAF weather

Enter ICAO airport designator
Station Type Date Time Source
KFAM METAR 2019/08/24 17:56 UTC NOAA

KFAM 241756Z AUTO 08008KT 10SM OVC100 23/15 A3013 RMK AO2 SLP207 T02280150


Station Type Date Time Source
KFAM Decoded METAR 2019/08/24 17:56 UTC NOAA

Station name not available
Aug 24, 2019 - 01:56 PM EDT / 2019.08.24 1756 UTC
Wind: from the E (080 degrees) at 9 MPH (8 KT):0
Visibility: 10 mile(s):0
Sky conditions: overcast
Temperature: 73.0 F (22.8 C)
Dew Point: 59.0 F (15.0 C)
Relative Humidity: 61%
Pressure (altimeter): 30.13 in. Hg (1020 hPa)
Pressure tendency: 0.03 inches (1.1 hPa) lower than three hours ago
ob: KFAM 241756Z AUTO 08008KT 10SM OVC100 23/15 A3013 RMK AO2 SLP207 T02280150 10239 20178 56011
cycle: 18

Station Type Date Time Source
KFAM TAF UTC NOAA

Error!

Example: see airport list